sensor_id;sensor_type;location;lat;lon;timestamp;P1;durP1;ratioP1;P2;durP2;ratioP2
12135;SDS011;6131;56.420;15.548;2022-07-09T00:00:23;5.60;;;1.40;;
12135;SDS011;6131;56.420;15.548;2022-07-09T00:02:49;9.73;;;1.50;;
12135;SDS011;6131;56.420;15.548;2022-07-09T00:05:15;4.23;;;1.53;;
12135;SDS011;6131;56.420;15.548;2022-07-09T00:07:41;6.03;;;1.43;;
12135;SDS011;6131;56.420;15.548;2022-07-09T00:10:07;6.50;;;1.70;;
12135;SDS011;6131;56.420;15.548;2022-07-09T00:12:33;8.17;;;2.17;;
12135;SDS011;6131;56.420;15.548;2022-07-09T00:14:59;7.17;;;1.77;;
12135;SDS011;6131;56.420;15.548;2022-07-09T00:17:25;4.73;;;1.63;;
12135;SDS011;6131;56.420;15.548;2022-07-09T00:19:51;9.60;;;2.10;;
12135;SDS011;6131;56.420;15.548;2022-07-09T00:22:18;9.07;;;2.00;;
12135;SDS011;6131;56.420;15.548;2022-07-09T00:24:44;5.70;;;2.00;;
12135;SDS011;6131;56.420;15.548;2022-07-09T00:27:10;8.83;;;2.20;;
12135;SDS011;6131;56.420;15.548;2022-07-09T00:29:36;6.10;;;1.77;;
12135;SDS011;6131;56.420;15.548;2022-07-09T00:32:02;6.73;;;1.93;;
12135;SDS011;6131;56.420;15.548;2022-07-09T00:34:28;8.73;;;1.90;;
12135;SDS011;6131;56.420;15.548;2022-07-09T00:36:54;7.73;;;1.97;;
12135;SDS011;6131;56.420;15.548;2022-07-09T00:39:20;7.97;;;2.00;;
12135;SDS011;6131;56.420;15.548;2022-07-09T00:41:46;8.63;;;1.83;;
12135;SDS011;6131;56.420;15.548;2022-07-09T00:44:12;8.37;;;2.13;;
12135;SDS011;6131;56.420;15.548;2022-07-09T00:46:38;8.17;;;1.97;;
12135;SDS011;6131;56.420;15.548;2022-07-09T00:49:04;9.37;;;1.90;;
12135;SDS011;6131;56.420;15.548;2022-07-09T00:51:31;6.80;;;1.97;;
12135;SDS011;6131;56.420;15.548;2022-07-09T00:53:58;9.13;;;2.10;;
12135;SDS011;6131;56.420;15.548;2022-07-09T00:56:26;10.93;;;2.40;;
12135;SDS011;6131;56.420;15.548;2022-07-09T00:58:53;9.60;;;2.17;;
12135;SDS011;6131;56.420;15.548;2022-07-09T01:01:19;8.73;;;2.47;;
12135;SDS011;6131;56.420;15.548;2022-07-09T01:03:45;7.23;;;1.87;;
12135;SDS011;6131;56.420;15.548;2022-07-09T01:06:11;8.70;;;2.60;;
12135;SDS011;6131;56.420;15.548;2022-07-09T01:08:38;5.83;;;2.03;;
12135;SDS011;6131;56.420;15.548;2022-07-09T01:11:04;12.30;;;1.90;;
12135;SDS011;6131;56.420;15.548;2022-07-09T01:13:30;12.43;;;2.47;;
12135;SDS011;6131;56.420;15.548;2022-07-09T01:15:56;9.87;;;2.27;;
12135;SDS011;6131;56.420;15.548;2022-07-09T01:18:22;9.07;;;2.53;;
12135;SDS011;6131;56.420;15.548;2022-07-09T01:20:48;7.13;;;2.30;;
12135;SDS011;6131;56.420;15.548;2022-07-09T01:23:14;8.37;;;2.27;;
12135;SDS011;6131;56.420;15.548;2022-07-09T01:25:41;9.73;;;2.73;;
12135;SDS011;6131;56.420;15.548;2022-07-09T01:28:08;11.57;;;2.63;;
12135;SDS011;6131;56.420;15.548;2022-07-09T01:30:36;13.23;;;3.00;;
12135;SDS011;6131;56.420;15.548;2022-07-09T01:33:02;6.77;;;2.40;;
12135;SDS011;6131;56.420;15.548;2022-07-09T01:35:29;8.80;;;2.60;;
12135;SDS011;6131;56.420;15.548;2022-07-09T01:37:55;8.67;;;2.43;;
12135;SDS011;6131;56.420;15.548;2022-07-09T01:40:23;10.90;;;2.70;;
12135;SDS011;6131;56.420;15.548;2022-07-09T01:42:49;11.70;;;3.00;;
12135;SDS011;6131;56.420;15.548;2022-07-09T01:45:15;14.50;;;3.30;;
12135;SDS011;6131;56.420;15.548;2022-07-09T01:47:42;8.03;;;2.17;;
12135;SDS011;6131;56.420;15.548;2022-07-09T01:50:08;14.70;;;3.33;;
12135;SDS011;6131;56.420;15.548;2022-07-09T01:52:35;9.53;;;2.93;;
12135;SDS011;6131;56.420;15.548;2022-07-09T01:55:01;10.77;;;2.87;;
12135;SDS011;6131;56.420;15.548;2022-07-09T01:57:27;15.77;;;3.10;;
12135;SDS011;6131;56.420;15.548;2022-07-09T01:59:53;9.17;;;2.60;;
12135;SDS011;6131;56.420;15.548;2022-07-09T02:02:19;12.23;;;3.00;;
12135;SDS011;6131;56.420;15.548;2022-07-09T02:04:45;13.63;;;3.10;;
12135;SDS011;6131;56.420;15.548;2022-07-09T02:07:14;11.50;;;2.70;;
12135;SDS011;6131;56.420;15.548;2022-07-09T02:09:41;14.87;;;3.63;;
12135;SDS011;6131;56.420;15.548;2022-07-09T02:12:07;13.87;;;3.20;;
12135;SDS011;6131;56.420;15.548;2022-07-09T02:14:33;10.63;;;3.13;;
12135;SDS011;6131;56.420;15.548;2022-07-09T02:16:59;15.13;;;3.93;;
12135;SDS011;6131;56.420;15.548;2022-07-09T02:19:25;10.47;;;3.10;;
12135;SDS011;6131;56.420;15.548;2022-07-09T02:21:51;11.33;;;3.30;;
12135;SDS011;6131;56.420;15.548;2022-07-09T02:24:17;8.67;;;2.97;;
12135;SDS011;6131;56.420;15.548;2022-07-09T02:26:43;11.03;;;2.73;;
12135;SDS011;6131;56.420;15.548;2022-07-09T02:29:09;8.67;;;2.97;;
12135;SDS011;6131;56.420;15.548;2022-07-09T02:31:35;14.13;;;3.43;;
12135;SDS011;6131;56.420;15.548;2022-07-09T02:34:01;9.70;;;2.83;;
12135;SDS011;6131;56.420;15.548;2022-07-09T02:36:27;11.10;;;2.93;;
12135;SDS011;6131;56.420;15.548;2022-07-09T02:38:53;12.53;;;3.20;;
12135;SDS011;6131;56.420;15.548;2022-07-09T02:41:19;13.20;;;2.97;;
12135;SDS011;6131;56.420;15.548;2022-07-09T02:43:45;11.97;;;2.90;;
12135;SDS011;6131;56.420;15.548;2022-07-09T02:46:12;10.60;;;2.93;;
12135;SDS011;6131;56.420;15.548;2022-07-09T02:48:38;11.17;;;3.03;;
12135;SDS011;6131;56.420;15.548;2022-07-09T02:51:04;11.17;;;2.63;;
12135;SDS011;6131;56.420;15.548;2022-07-09T02:53:30;9.43;;;2.93;;
12135;SDS011;6131;56.420;15.548;2022-07-09T02:55:56;11.63;;;3.13;;
12135;SDS011;6131;56.420;15.548;2022-07-09T02:58:23;10.83;;;2.87;;
12135;SDS011;6131;56.420;15.548;2022-07-09T03:00:48;9.83;;;3.10;;
12135;SDS011;6131;56.420;15.548;2022-07-09T03:03:15;8.20;;;2.50;;
12135;SDS011;6131;56.420;15.548;2022-07-09T03:05:41;9.80;;;2.83;;
12135;SDS011;6131;56.420;15.548;2022-07-09T03:08:07;12.30;;;3.27;;
12135;SDS011;6131;56.420;15.548;2022-07-09T03:10:34;10.53;;;2.80;;
12135;SDS011;6131;56.420;15.548;2022-07-09T03:13:00;9.80;;;3.10;;
12135;SDS011;6131;56.420;15.548;2022-07-09T03:15:26;10.57;;;3.20;;
12135;SDS011;6131;56.420;15.548;2022-07-09T03:17:52;12.23;;;3.07;;
12135;SDS011;6131;56.420;15.548;2022-07-09T03:20:18;11.60;;;2.77;;
12135;SDS011;6131;56.420;15.548;2022-07-09T03:22:44;9.97;;;3.20;;
12135;SDS011;6131;56.420;15.548;2022-07-09T03:25:10;7.43;;;2.60;;
12135;SDS011;6131;56.420;15.548;2022-07-09T03:27:36;9.13;;;2.70;;
12135;SDS011;6131;56.420;15.548;2022-07-09T03:30:03;11.10;;;2.83;;
12135;SDS011;6131;56.420;15.548;2022-07-09T03:32:29;11.97;;;3.10;;
12135;SDS011;6131;56.420;15.548;2022-07-09T03:34:55;7.93;;;2.67;;
12135;SDS011;6131;56.420;15.548;2022-07-09T03:37:21;10.10;;;2.80;;
12135;SDS011;6131;56.420;15.548;2022-07-09T03:39:47;9.10;;;2.70;;
12135;SDS011;6131;56.420;15.548;2022-07-09T03:42:13;9.40;;;2.73;;
12135;SDS011;6131;56.420;15.548;2022-07-09T03:44:40;13.37;;;3.37;;
12135;SDS011;6131;56.420;15.548;2022-07-09T03:47:06;8.63;;;2.43;;
12135;SDS011;6131;56.420;15.548;2022-07-09T03:49:32;8.87;;;2.93;;
12135;SDS011;6131;56.420;15.548;2022-07-09T03:51:59;6.33;;;2.47;;
12135;SDS011;6131;56.420;15.548;2022-07-09T03:54:25;8.53;;;2.60;;
12135;SDS011;6131;56.420;15.548;2022-07-09T03:56:51;9.13;;;3.07;;
12135;SDS011;6131;56.420;15.548;2022-07-09T03:59:17;8.87;;;2.80;;
12135;SDS011;6131;56.420;15.548;2022-07-09T04:01:44;11.40;;;2.80;;
12135;SDS011;6131;56.420;15.548;2022-07-09T04:04:10;7.57;;;2.50;;
12135;SDS011;6131;56.420;15.548;2022-07-09T04:06:36;11.07;;;2.90;;
12135;SDS011;6131;56.420;15.548;2022-07-09T04:09:02;8.20;;;3.03;;
12135;SDS011;6131;56.420;15.548;2022-07-09T04:11:31;8.70;;;2.37;;
12135;SDS011;6131;56.420;15.548;2022-07-09T04:14:01;7.27;;;2.50;;
12135;SDS011;6131;56.420;15.548;2022-07-09T04:16:28;8.03;;;2.70;;
12135;SDS011;6131;56.420;15.548;2022-07-09T04:18:54;6.70;;;2.50;;
12135;SDS011;6131;56.420;15.548;2022-07-09T04:21:20;8.67;;;2.47;;
12135;SDS011;6131;56.420;15.548;2022-07-09T04:23:49;10.00;;;2.50;;
12135;SDS011;6131;56.420;15.548;2022-07-09T04:26:15;9.73;;;2.93;;
12135;SDS011;6131;56.420;15.548;2022-07-09T04:28:43;7.27;;;2.70;;
12135;SDS011;6131;56.420;15.548;2022-07-09T04:31:09;12.10;;;2.80;;
12135;SDS011;6131;56.420;15.548;2022-07-09T04:33:35;8.13;;;2.60;;
12135;SDS011;6131;56.420;15.548;2022-07-09T04:36:01;6.93;;;2.63;;
12135;SDS011;6131;56.420;15.548;2022-07-09T04:38:27;9.97;;;2.60;;
12135;SDS011;6131;56.420;15.548;2022-07-09T04:40:54;11.13;;;2.67;;
12135;SDS011;6131;56.420;15.548;2022-07-09T04:43:20;7.30;;;2.40;;
12135;SDS011;6131;56.420;15.548;2022-07-09T04:45:46;12.70;;;2.93;;
12135;SDS011;6131;56.420;15.548;2022-07-09T04:48:12;9.17;;;2.70;;
12135;SDS011;6131;56.420;15.548;2022-07-09T04:50:38;7.57;;;2.63;;
12135;SDS011;6131;56.420;15.548;2022-07-09T04:53:04;10.43;;;2.87;;
12135;SDS011;6131;56.420;15.548;2022-07-09T04:55:30;8.27;;;2.80;;
12135;SDS011;6131;56.420;15.548;2022-07-09T04:57:56;10.77;;;2.70;;
12135;SDS011;6131;56.420;15.548;2022-07-09T05:00:22;8.73;;;2.50;;
12135;SDS011;6131;56.420;15.548;2022-07-09T05:02:48;6.50;;;2.30;;
12135;SDS011;6131;56.420;15.548;2022-07-09T05:05:14;7.30;;;2.13;;
12135;SDS011;6131;56.420;15.548;2022-07-09T05:07:41;8.10;;;2.20;;
12135;SDS011;6131;56.420;15.548;2022-07-09T05:10:07;9.43;;;2.20;;
12135;SDS011;6131;56.420;15.548;2022-07-09T05:12:34;7.50;;;2.77;;
12135;SDS011;6131;56.420;15.548;2022-07-09T05:15:00;8.23;;;2.40;;
12135;SDS011;6131;56.420;15.548;2022-07-09T05:17:26;6.43;;;2.10;;
12135;SDS011;6131;56.420;15.548;2022-07-09T05:19:52;6.87;;;2.30;;
12135;SDS011;6131;56.420;15.548;2022-07-09T05:22:18;7.47;;;2.50;;
12135;SDS011;6131;56.420;15.548;2022-07-09T05:24:44;6.67;;;1.97;;
12135;SDS011;6131;56.420;15.548;2022-07-09T05:27:10;5.00;;;2.00;;
12135;SDS011;6131;56.420;15.548;2022-07-09T05:29:36;9.00;;;2.57;;
12135;SDS011;6131;56.420;15.548;2022-07-09T05:32:02;9.67;;;2.30;;
12135;SDS011;6131;56.420;15.548;2022-07-09T05:34:29;8.83;;;2.00;;
12135;SDS011;6131;56.420;15.548;2022-07-09T05:36:55;6.77;;;2.00;;
12135;SDS011;6131;56.420;15.548;2022-07-09T05:39:21;5.47;;;2.20;;
12135;SDS011;6131;56.420;15.548;2022-07-09T05:41:47;7.73;;;2.23;;
12135;SDS011;6131;56.420;15.548;2022-07-09T05:44:13;6.10;;;2.00;;
12135;SDS011;6131;56.420;15.548;2022-07-09T05:46:40;4.07;;;1.67;;
12135;SDS011;6131;56.420;15.548;2022-07-09T05:49:06;5.07;;;1.93;;
12135;SDS011;6131;56.420;15.548;2022-07-09T05:51:32;4.57;;;1.70;;
12135;SDS011;6131;56.420;15.548;2022-07-09T05:53:59;8.60;;;1.83;;
12135;SDS011;6131;56.420;15.548;2022-07-09T05:56:25;6.57;;;1.67;;
12135;SDS011;6131;56.420;15.548;2022-07-09T05:58:51;5.77;;;2.00;;
12135;SDS011;6131;56.420;15.548;2022-07-09T06:01:17;4.80;;;1.70;;
12135;SDS011;6131;56.420;15.548;2022-07-09T06:03:43;8.27;;;2.10;;
12135;SDS011;6131;56.420;15.548;2022-07-09T06:06:09;5.93;;;2.20;;
12135;SDS011;6131;56.420;15.548;2022-07-09T06:08:35;3.23;;;1.53;;
12135;SDS011;6131;56.420;15.548;2022-07-09T06:11:02;5.80;;;1.70;;
12135;SDS011;6131;56.420;15.548;2022-07-09T06:13:28;7.60;;;1.90;;
12135;SDS011;6131;56.420;15.548;2022-07-09T06:15:54;5.53;;;1.70;;
12135;SDS011;6131;56.420;15.548;2022-07-09T06:18:20;5.20;;;1.43;;
12135;SDS011;6131;56.420;15.548;2022-07-09T06:20:49;4.27;;;1.63;;
12135;SDS011;6131;56.420;15.548;2022-07-09T06:23:15;4.77;;;1.73;;
12135;SDS011;6131;56.420;15.548;2022-07-09T06:25:41;3.67;;;1.90;;
12135;SDS011;6131;56.420;15.548;2022-07-09T06:28:07;7.30;;;1.80;;
12135;SDS011;6131;56.420;15.548;2022-07-09T06:30:33;7.70;;;1.67;;
12135;SDS011;6131;56.420;15.548;2022-07-09T06:33:00;7.83;;;1.80;;
12135;SDS011;6131;56.420;15.548;2022-07-09T06:35:26;5.43;;;1.50;;
12135;SDS011;6131;56.420;15.548;2022-07-09T06:37:52;2.97;;;1.23;;
12135;SDS011;6131;56.420;15.548;2022-07-09T06:40:18;5.80;;;1.53;;
12135;SDS011;6131;56.420;15.548;2022-07-09T06:42:44;4.50;;;1.50;;
12135;SDS011;6131;56.420;15.548;2022-07-09T06:45:10;4.33;;;1.43;;
12135;SDS011;6131;56.420;15.548;2022-07-09T06:47:36;4.23;;;1.50;;
12135;SDS011;6131;56.420;15.548;2022-07-09T06:50:02;4.20;;;1.43;;
12135;SDS011;6131;56.420;15.548;2022-07-09T06:52:29;6.73;;;1.60;;
12135;SDS011;6131;56.420;15.548;2022-07-09T06:54:55;4.90;;;1.60;;
12135;SDS011;6131;56.420;15.548;2022-07-09T06:57:21;5.87;;;1.30;;
12135;SDS011;6131;56.420;15.548;2022-07-09T06:59:47;3.90;;;1.50;;
12135;SDS011;6131;56.420;15.548;2022-07-09T07:02:13;3.43;;;1.30;;
12135;SDS011;6131;56.420;15.548;2022-07-09T07:04:42;5.10;;;1.43;;
12135;SDS011;6131;56.420;15.548;2022-07-09T07:07:08;3.30;;;1.20;;
12135;SDS011;6131;56.420;15.548;2022-07-09T07:09:34;3.23;;;1.20;;
12135;SDS011;6131;56.420;15.548;2022-07-09T07:12:01;4.27;;;1.30;;
12135;SDS011;6131;56.420;15.548;2022-07-09T07:14:27;6.53;;;1.50;;
12135;SDS011;6131;56.420;15.548;2022-07-09T07:16:53;4.20;;;1.37;;
12135;SDS011;6131;56.420;15.548;2022-07-09T07:19:19;3.30;;;1.40;;
12135;SDS011;6131;56.420;15.548;2022-07-09T07:21:46;3.03;;;1.17;;
12135;SDS011;6131;56.420;15.548;2022-07-09T07:24:12;3.20;;;1.40;;
12135;SDS011;6131;56.420;15.548;2022-07-09T07:26:38;3.00;;;1.30;;
12135;SDS011;6131;56.420;15.548;2022-07-09T07:29:04;2.58;;;1.23;;
12135;SDS011;6131;56.420;15.548;2022-07-09T07:31:30;4.23;;;1.30;;
12135;SDS011;6131;56.420;15.548;2022-07-09T07:33:56;4.13;;;1.20;;
12135;SDS011;6131;56.420;15.548;2022-07-09T07:36:22;4.15;;;1.05;;
12135;SDS011;6131;56.420;15.548;2022-07-09T07:38:48;2.87;;;1.00;;
12135;SDS011;6131;56.420;15.548;2022-07-09T07:41:15;2.67;;;1.00;;
12135;SDS011;6131;56.420;15.548;2022-07-09T07:43:42;4.53;;;1.30;;
12135;SDS011;6131;56.420;15.548;2022-07-09T07:46:08;6.40;;;0.98;;
12135;SDS011;6131;56.420;15.548;2022-07-09T07:48:34;4.70;;;1.20;;
12135;SDS011;6131;56.420;15.548;2022-07-09T07:51:01;3.67;;;1.23;;
12135;SDS011;6131;56.420;15.548;2022-07-09T07:53:27;2.97;;;1.00;;
12135;SDS011;6131;56.420;15.548;2022-07-09T07:55:53;3.07;;;1.30;;
12135;SDS011;6131;56.420;15.548;2022-07-09T07:58:19;2.67;;;1.13;;
12135;SDS011;6131;56.420;15.548;2022-07-09T08:00:45;3.28;;;1.05;;
12135;SDS011;6131;56.420;15.548;2022-07-09T08:03:11;2.67;;;1.00;;
12135;SDS011;6131;56.420;15.548;2022-07-09T08:05:37;2.50;;;1.10;;
12135;SDS011;6131;56.420;15.548;2022-07-09T08:08:03;4.10;;;1.42;;
12135;SDS011;6131;56.420;15.548;2022-07-09T08:10:29;7.10;;;1.10;;
12135;SDS011;6131;56.420;15.548;2022-07-09T08:12:55;2.80;;;1.08;;
12135;SDS011;6131;56.420;15.548;2022-07-09T08:15:21;3.75;;;1.25;;
12135;SDS011;6131;56.420;15.548;2022-07-09T08:17:47;1.85;;;0.98;;
12135;SDS011;6131;56.420;15.548;2022-07-09T08:20:13;2.40;;;1.10;;
12135;SDS011;6131;56.420;15.548;2022-07-09T08:22:39;2.25;;;1.20;;
12135;SDS011;6131;56.420;15.548;2022-07-09T08:25:05;4.38;;;1.15;;
12135;SDS011;6131;56.420;15.548;2022-07-09T08:27:32;2.88;;;1.10;;
12135;SDS011;6131;56.420;15.548;2022-07-09T08:29:58;2.10;;;0.95;;
12135;SDS011;6131;56.420;15.548;2022-07-09T08:32:24;2.22;;;0.82;;
12135;SDS011;6131;56.420;15.548;2022-07-09T08:34:51;4.60;;;1.17;;
12135;SDS011;6131;56.420;15.548;2022-07-09T08:37:17;2.28;;;1.17;;
12135;SDS011;6131;56.420;15.548;2022-07-09T08:39:43;4.07;;;1.20;;
12135;SDS011;6131;56.420;15.548;2022-07-09T08:42:09;4.13;;;1.20;;
12135;SDS011;6131;56.420;15.548;2022-07-09T08:44:37;4.68;;;1.08;;
12135;SDS011;6131;56.420;15.548;2022-07-09T08:47:04;2.17;;;1.15;;
12135;SDS011;6131;56.420;15.548;2022-07-09T08:49:33;3.47;;;1.10;;
12135;SDS011;6131;56.420;15.548;2022-07-09T08:51:59;2.80;;;1.20;;
12135;SDS011;6131;56.420;15.548;2022-07-09T08:54:28;4.10;;;1.38;;
12135;SDS011;6131;56.420;15.548;2022-07-09T08:56:54;2.78;;;1.02;;
12135;SDS011;6131;56.420;15.548;2022-07-09T08:59:20;3.80;;;1.10;;
12135;SDS011;6131;56.420;15.548;2022-07-09T09:01:46;2.55;;;0.80;;
12135;SDS011;6131;56.420;15.548;2022-07-09T09:04:12;4.63;;;1.20;;
12135;SDS011;6131;56.420;15.548;2022-07-09T09:06:38;4.43;;;1.27;;
12135;SDS011;6131;56.420;15.548;2022-07-09T09:09:08;2.65;;;1.10;;
12135;SDS011;6131;56.420;15.548;2022-07-09T09:11:36;3.13;;;1.27;;
12135;SDS011;6131;56.420;15.548;2022-07-09T09:14:02;3.88;;;1.38;;
12135;SDS011;6131;56.420;15.548;2022-07-09T09:16:28;2.97;;;1.00;;
12135;SDS011;6131;56.420;15.548;2022-07-09T09:18:55;2.08;;;0.88;;
12135;SDS011;6131;56.420;15.548;2022-07-09T09:21:22;2.78;;;1.00;;
12135;SDS011;6131;56.420;15.548;2022-07-09T09:23:49;3.22;;;1.10;;
12135;SDS011;6131;56.420;15.548;2022-07-09T09:26:19;2.47;;;1.00;;
12135;SDS011;6131;56.420;15.548;2022-07-09T09:28:49;4.47;;;1.00;;
12135;SDS011;6131;56.420;15.548;2022-07-09T09:33:48;3.22;;;0.93;;
12135;SDS011;6131;56.420;15.548;2022-07-09T09:39:31;1.73;;;1.13;;
12135;SDS011;6131;56.420;15.548;2022-07-09T09:41:51;3.28;;;1.20;;
12135;SDS011;6131;56.420;15.548;2022-07-09T09:44:18;1.90;;;0.90;;
12135;SDS011;6131;56.420;15.548;2022-07-09T09:46:45;5.35;;;1.23;;
12135;SDS011;6131;56.420;15.548;2022-07-09T09:49:12;5.50;;;1.15;;
12135;SDS011;6131;56.420;15.548;2022-07-09T09:54:24;4.20;;;0.98;;
12135;SDS011;6131;56.420;15.548;2022-07-09T09:56:50;4.32;;;1.20;;
12135;SDS011;6131;56.420;15.548;2022-07-09T09:59:16;2.97;;;1.05;;
12135;SDS011;6131;56.420;15.548;2022-07-09T10:01:43;4.00;;;1.00;;
12135;SDS011;6131;56.420;15.548;2022-07-09T10:04:09;3.55;;;0.98;;
12135;SDS011;6131;56.420;15.548;2022-07-09T10:06:36;2.17;;;0.90;;
12135;SDS011;6131;56.420;15.548;2022-07-09T10:09:03;3.50;;;1.05;;
12135;SDS011;6131;56.420;15.548;2022-07-09T10:14:04;5.50;;;1.13;;
12135;SDS011;6131;56.420;15.548;2022-07-09T10:16:39;3.90;;;1.02;;
12135;SDS011;6131;56.420;15.548;2022-07-09T10:19:06;3.28;;;1.00;;
12135;SDS011;6131;56.420;15.548;2022-07-09T10:21:39;3.78;;;0.90;;
12135;SDS011;6131;56.420;15.548;2022-07-09T10:24:06;2.42;;;0.88;;
12135;SDS011;6131;56.420;15.548;2022-07-09T10:29:26;5.20;;;1.10;;
12135;SDS011;6131;56.420;15.548;2022-07-09T10:31:52;2.45;;;0.98;;
12135;SDS011;6131;56.420;15.548;2022-07-09T10:34:35;3.08;;;1.10;;
12135;SDS011;6131;56.420;15.548;2022-07-09T10:37:03;2.63;;;0.98;;
12135;SDS011;6131;56.420;15.548;2022-07-09T10:39:30;2.30;;;0.93;;
12135;SDS011;6131;56.420;15.548;2022-07-09T10:42:02;3.17;;;1.00;;
12135;SDS011;6131;56.420;15.548;2022-07-09T10:44:35;4.35;;;1.10;;
12135;SDS011;6131;56.420;15.548;2022-07-09T10:47:03;3.10;;;1.10;;
12135;SDS011;6131;56.420;15.548;2022-07-09T10:49:29;2.53;;;0.90;;
12135;SDS011;6131;56.420;15.548;2022-07-09T10:51:56;2.17;;;0.82;;
12135;SDS011;6131;56.420;15.548;2022-07-09T10:54:25;2.25;;;1.08;;
12135;SDS011;6131;56.420;15.548;2022-07-09T10:56:52;5.78;;;1.17;;
12135;SDS011;6131;56.420;15.548;2022-07-09T10:59:19;2.10;;;0.80;;
12135;SDS011;6131;56.420;15.548;2022-07-09T11:01:46;3.83;;;0.80;;
12135;SDS011;6131;56.420;15.548;2022-07-09T11:04:12;1.33;;;0.80;;
12135;SDS011;6131;56.420;15.548;2022-07-09T11:06:48;2.95;;;1.00;;
12135;SDS011;6131;56.420;15.548;2022-07-09T11:09:14;1.90;;;0.80;;
12135;SDS011;6131;56.420;15.548;2022-07-09T11:11:43;4.05;;;0.90;;
12135;SDS011;6131;56.420;15.548;2022-07-09T11:14:10;3.30;;;0.85;;
12135;SDS011;6131;56.420;15.548;2022-07-09T11:16:36;2.80;;;1.05;;
12135;SDS011;6131;56.420;15.548;2022-07-09T11:19:18;2.03;;;0.80;;
12135;SDS011;6131;56.420;15.548;2022-07-09T11:21:44;3.05;;;0.75;;
12135;SDS011;6131;56.420;15.548;2022-07-09T11:24:14;2.17;;;1.05;;
12135;SDS011;6131;56.420;15.548;2022-07-09T11:26:40;2.17;;;1.00;;
12135;SDS011;6131;56.420;15.548;2022-07-09T11:29:07;1.98;;;0.77;;
12135;SDS011;6131;56.420;15.548;2022-07-09T11:31:34;2.53;;;0.80;;
12135;SDS011;6131;56.420;15.548;2022-07-09T11:34:00;2.00;;;0.80;;
12135;SDS011;6131;56.420;15.548;2022-07-09T11:36:39;2.05;;;0.88;;
12135;SDS011;6131;56.420;15.548;2022-07-09T11:39:05;2.25;;;0.75;;
12135;SDS011;6131;56.420;15.548;2022-07-09T11:41:45;2.78;;;0.75;;
12135;SDS011;6131;56.420;15.548;2022-07-09T11:44:19;3.88;;;0.80;;
12135;SDS011;6131;56.420;15.548;2022-07-09T11:46:45;1.80;;;0.80;;
12135;SDS011;6131;56.420;15.548;2022-07-09T11:49:14;4.07;;;0.82;;
12135;SDS011;6131;56.420;15.548;2022-07-09T11:51:41;3.08;;;0.90;;
12135;SDS011;6131;56.420;15.548;2022-07-09T11:54:08;1.58;;;0.80;;
12135;SDS011;6131;56.420;15.548;2022-07-09T11:56:44;2.78;;;0.90;;
12135;SDS011;6131;56.420;15.548;2022-07-09T11:59:12;3.42;;;0.98;;
12135;SDS011;6131;56.420;15.548;2022-07-09T12:01:39;3.33;;;0.80;;
12135;SDS011;6131;56.420;15.548;2022-07-09T12:04:05;5.10;;;1.10;;
12135;SDS011;6131;56.420;15.548;2022-07-09T12:06:31;2.25;;;0.82;;
12135;SDS011;6131;56.420;15.548;2022-07-09T12:09:00;3.10;;;1.10;;
12135;SDS011;6131;56.420;15.548;2022-07-09T12:11:27;3.53;;;1.00;;
12135;SDS011;6131;56.420;15.548;2022-07-09T12:13:54;3.17;;;0.95;;
12135;SDS011;6131;56.420;15.548;2022-07-09T12:16:20;4.05;;;0.90;;
12135;SDS011;6131;56.420;15.548;2022-07-09T12:18:46;2.13;;;0.70;;
12135;SDS011;6131;56.420;15.548;2022-07-09T12:21:12;2.65;;;0.95;;
12135;SDS011;6131;56.420;15.548;2022-07-09T12:23:38;5.35;;;0.93;;
12135;SDS011;6131;56.420;15.548;2022-07-09T12:26:04;2.95;;;1.05;;
12135;SDS011;6131;56.420;15.548;2022-07-09T12:28:30;2.08;;;1.10;;
12135;SDS011;6131;56.420;15.548;2022-07-09T12:30:56;2.08;;;0.90;;
12135;SDS011;6131;56.420;15.548;2022-07-09T12:33:22;1.40;;;0.63;;
12135;SDS011;6131;56.420;15.548;2022-07-09T12:35:48;3.05;;;1.00;;
12135;SDS011;6131;56.420;15.548;2022-07-09T12:38:14;2.17;;;0.77;;
12135;SDS011;6131;56.420;15.548;2022-07-09T12:40:40;1.38;;;0.73;;
12135;SDS011;6131;56.420;15.548;2022-07-09T12:43:06;3.88;;;0.70;;
12135;SDS011;6131;56.420;15.548;2022-07-09T12:45:32;2.53;;;1.05;;
12135;SDS011;6131;56.420;15.548;2022-07-09T12:47:59;2.55;;;1.00;;
12135;SDS011;6131;56.420;15.548;2022-07-09T12:50:25;3.22;;;0.90;;
12135;SDS011;6131;56.420;15.548;2022-07-09T12:52:51;3.42;;;1.00;;
12135;SDS011;6131;56.420;15.548;2022-07-09T12:55:17;3.30;;;1.00;;
12135;SDS011;6131;56.420;15.548;2022-07-09T12:57:43;2.30;;;0.80;;
12135;SDS011;6131;56.420;15.548;2022-07-09T13:00:09;2.47;;;0.90;;
12135;SDS011;6131;56.420;15.548;2022-07-09T13:02:35;2.85;;;0.93;;
12135;SDS011;6131;56.420;15.548;2022-07-09T13:05:01;1.98;;;0.80;;
12135;SDS011;6131;56.420;15.548;2022-07-09T13:07:27;4.10;;;0.88;;
12135;SDS011;6131;56.420;15.548;2022-07-09T13:09:53;6.10;;;1.27;;
12135;SDS011;6131;56.420;15.548;2022-07-09T13:12:19;2.72;;;0.80;;
12135;SDS011;6131;56.420;15.548;2022-07-09T13:14:45;2.88;;;0.75;;
12135;SDS011;6131;56.420;15.548;2022-07-09T13:17:11;3.00;;;0.80;;
12135;SDS011;6131;56.420;15.548;2022-07-09T13:19:37;2.88;;;0.70;;
12135;SDS011;6131;56.420;15.548;2022-07-09T13:22:03;2.92;;;0.98;;
12135;SDS011;6131;56.420;15.548;2022-07-09T13:24:32;5.05;;;0.95;;
12135;SDS011;6131;56.420;15.548;2022-07-09T13:26:58;2.80;;;0.80;;
12135;SDS011;6131;56.420;15.548;2022-07-09T13:29:25;2.78;;;0.60;;
12135;SDS011;6131;56.420;15.548;2022-07-09T13:31:51;3.33;;;0.90;;
12135;SDS011;6131;56.420;15.548;2022-07-09T13:34:17;11.00;;;3.35;;
12135;SDS011;6131;56.420;15.548;2022-07-09T13:36:43;4.05;;;1.27;;
12135;SDS011;6131;56.420;15.548;2022-07-09T13:39:09;3.22;;;1.13;;
12135;SDS011;6131;56.420;15.548;2022-07-09T13:41:35;4.45;;;1.20;;
12135;SDS011;6131;56.420;15.548;2022-07-09T13:44:01;8.13;;;1.02;;
12135;SDS011;6131;56.420;15.548;2022-07-09T13:46:28;2.45;;;0.80;;
12135;SDS011;6131;56.420;15.548;2022-07-09T13:48:54;2.13;;;0.82;;
12135;SDS011;6131;56.420;15.548;2022-07-09T13:51:20;2.70;;;0.82;;
12135;SDS011;6131;56.420;15.548;2022-07-09T13:53:46;1.75;;;0.70;;
12135;SDS011;6131;56.420;15.548;2022-07-09T13:56:12;3.33;;;0.85;;
12135;SDS011;6131;56.420;15.548;2022-07-09T13:58:38;3.10;;;0.80;;
12135;SDS011;6131;56.420;15.548;2022-07-09T14:01:04;5.32;;;1.85;;
12135;SDS011;6131;56.420;15.548;2022-07-09T14:03:30;8.10;;;1.85;;
12135;SDS011;6131;56.420;15.548;2022-07-09T14:05:56;2.53;;;0.90;;
12135;SDS011;6131;56.420;15.548;2022-07-09T14:08:22;4.05;;;0.90;;
12135;SDS011;6131;56.420;15.548;2022-07-09T14:10:49;2.28;;;0.90;;
12135;SDS011;6131;56.420;15.548;2022-07-09T14:13:22;4.78;;;1.00;;
12135;SDS011;6131;56.420;15.548;2022-07-09T14:15:48;1.45;;;0.80;;
12135;SDS011;6131;56.420;15.548;2022-07-09T14:18:14;3.20;;;0.85;;
12135;SDS011;6131;56.420;15.548;2022-07-09T14:20:40;6.57;;;1.45;;
12135;SDS011;6131;56.420;15.548;2022-07-09T14:23:06;4.30;;;0.93;;
12135;SDS011;6131;56.420;15.548;2022-07-09T14:25:32;3.38;;;0.73;;
12135;SDS011;6131;56.420;15.548;2022-07-09T14:27:58;5.78;;;1.33;;
12135;SDS011;6131;56.420;15.548;2022-07-09T14:30:24;5.15;;;1.20;;
12135;SDS011;6131;56.420;15.548;2022-07-09T14:32:50;3.13;;;0.90;;
12135;SDS011;6131;56.420;15.548;2022-07-09T14:35:16;3.20;;;0.95;;
12135;SDS011;6131;56.420;15.548;2022-07-09T14:37:43;3.00;;;0.88;;
12135;SDS011;6131;56.420;15.548;2022-07-09T14:40:09;6.15;;;1.23;;
12135;SDS011;6131;56.420;15.548;2022-07-09T14:42:35;3.38;;;1.17;;
12135;SDS011;6131;56.420;15.548;2022-07-09T14:45:01;4.28;;;0.98;;
12135;SDS011;6131;56.420;15.548;2022-07-09T14:47:27;4.45;;;1.15;;
12135;SDS011;6131;56.420;15.548;2022-07-09T14:49:53;4.53;;;1.10;;
12135;SDS011;6131;56.420;15.548;2022-07-09T14:52:19;2.80;;;0.98;;
12135;SDS011;6131;56.420;15.548;2022-07-09T14:54:45;4.25;;;0.85;;